createdAt,value
2018-10-03T03:14:28.349Z,94.12
2018-10-03T03:15:28.267Z,93.74
2018-10-03T03:16:28.450Z,94.03
2018-10-03T03:17:28.282Z,93.36
2018-10-03T03:18:28.218Z,93.74
2018-10-03T03:19:28.211Z,93.65
2018-10-03T03:20:28.206Z,93.46
2018-10-03T03:21:28.285Z,93.93
2018-10-03T03:22:28.204Z,93.74
2018-10-03T03:23:28.192Z,93.65
2018-10-03T03:24:28.199Z,93.41
2018-10-03T03:25:28.200Z,93.55
2018-10-03T03:26:28.173Z,93.36
2018-10-03T03:27:28.168Z,93.08
2018-10-03T03:28:28.162Z,93.46
2018-10-03T03:29:28.182Z,92.65
2018-10-03T03:30:28.142Z,92.46
2018-10-03T03:31:28.151Z,92.93
2018-10-03T03:32:28.149Z,92.74
2018-10-03T03:33:28.151Z,92.93
2018-10-03T03:34:28.159Z,92.55
2018-10-03T03:35:28.167Z,92.98
2018-10-03T03:36:28.131Z,93.46
2018-10-03T03:37:28.122Z,93.41
2018-10-03T03:38:28.120Z,93.51
2018-10-03T03:39:28.114Z,93.41
2018-10-03T03:40:28.119Z,93.36
2018-10-03T03:41:28.091Z,92.98
2018-10-03T03:42:28.085Z,92.65
2018-10-03T03:43:28.130Z,92.83
2018-10-03T03:44:28.082Z,92.36
2018-10-03T03:45:28.121Z,92.83
2018-10-03T03:46:28.101Z,93.22
2018-10-03T03:47:28.098Z,92.55
2018-10-03T03:48:28.062Z,92.93
2018-10-03T03:49:28.062Z,92.83
2018-10-03T03:50:28.067Z,92.26
2018-10-03T03:51:28.039Z,92.46
2018-10-03T03:52:28.037Z,92.55
2018-10-03T03:53:28.078Z,92.36
2018-10-03T03:54:28.029Z,92.74
2018-10-03T03:55:28.028Z,92.74
2018-10-03T03:56:28.033Z,93.12
2018-10-03T03:57:28.021Z,92.74
2018-10-03T03:58:28.053Z,92.65
2018-10-03T03:59:28.032Z,92.83
2018-10-03T04:00:28.044Z,93.02
2018-10-03T04:01:28.002Z,93.41
2018-10-03T04:02:28.030Z,93.51
2018-10-03T04:03:28.009Z,93.51
2018-10-03T04:04:28.013Z,93.79
2018-10-03T04:05:27.979Z,93.12
2018-10-03T04:06:27.994Z,93.51
2018-10-03T04:07:27.985Z,92.93
2018-10-03T04:08:27.980Z,93.02
2018-10-03T04:09:27.969Z,93.41
2018-10-03T04:10:27.956Z,93.12
2018-10-03T04:11:27.950Z,94.17
2018-10-03T04:12:27.948Z,94.17
2018-10-03T04:13:27.947Z,93.41
2018-10-03T04:14:27.942Z,93.70
2018-10-03T04:15:27.936Z,93.98
2018-10-03T04:16:27.947Z,93.31
2018-10-03T04:17:27.944Z,93.79
2018-10-03T04:18:27.918Z,93.88
2018-10-03T04:19:27.916Z,93.98
2018-10-03T04:20:27.919Z,93.98
2018-10-03T04:21:27.910Z,94.27
2018-10-03T04:22:27.908Z,93.98
2018-10-03T04:23:27.899Z,93.70
2018-10-03T04:24:27.901Z,93.98
2018-10-03T04:25:27.889Z,93.70
2018-10-03T04:26:27.886Z,93.98
2018-10-03T04:27:27.897Z,93.79
2018-10-03T04:28:27.880Z,93.22
2018-10-03T04:29:27.877Z,94.07
2018-10-03T04:30:27.865Z,93.98
2018-10-03T04:31:27.863Z,93.88
2018-10-03T04:32:27.854Z,94.27
2018-10-03T04:33:27.856Z,93.79
2018-10-03T04:34:27.854Z,93.70
2018-10-03T04:35:27.866Z,93.79
2018-10-03T04:36:27.837Z,94.17
2018-10-03T04:37:27.840Z,94.27
2018-10-03T04:38:27.830Z,94.36
2018-10-03T04:39:27.823Z,94.56
2018-10-03T04:40:27.828Z,94.56
2018-10-03T04:41:27.811Z,94.84
2018-10-03T04:42:27.821Z,95.22
2018-10-03T04:43:27.826Z,94.84
2018-10-03T04:44:27.834Z,95.12
2018-10-03T04:45:27.837Z,94.93
2018-10-03T04:46:27.799Z,95.22
2018-10-03T04:47:27.859Z,94.84
2018-10-03T04:48:27.812Z,94.93
2018-10-03T04:49:27.785Z,95.22
2018-10-03T04:50:27.820Z,94.84
2018-10-03T04:51:27.787Z,94.84
2018-10-03T04:52:27.804Z,94.93
2018-10-03T04:53:27.765Z,95.03
2018-10-03T04:54:27.812Z,95.32
2018-10-03T04:55:27.778Z,95.22
2018-10-03T04:56:27.819Z,94.84
2018-10-03T04:57:27.770Z,95.22
2018-10-03T04:58:27.770Z,94.93
2018-10-03T04:59:27.777Z,95.12
2018-10-03T05:00:27.977Z,94.93
2018-10-03T05:01:27.732Z,94.46
2018-10-03T05:02:27.753Z,95.22
2018-10-03T05:03:27.752Z,94.74
2018-10-03T05:04:27.713Z,94.93
2018-10-03T05:05:27.767Z,94.84
2018-10-03T05:06:27.727Z,94.56
2018-10-03T05:07:27.728Z,94.36
2018-10-03T05:08:27.719Z,95.32
2018-10-03T05:09:27.686Z,94.46
2018-10-03T05:10:27.741Z,95.03
2018-10-03T05:11:27.850Z,94.65
2018-10-03T05:12:27.720Z,94.17
2018-10-03T05:13:27.697Z,94.36
2018-10-03T05:14:27.673Z,94.17
2018-10-03T05:15:27.663Z,94.17
2018-10-03T05:16:27.680Z,93.60
2018-10-03T05:17:27.649Z,93.98
2018-10-03T05:18:27.653Z,94.07
2018-10-03T05:19:36.299Z,93.22
2018-10-03T05:21:21.048Z,93.51
2018-10-03T05:22:21.027Z,93.22
